createdAt,value
2018-01-27T00:02:17.857Z,18.40
2018-01-27T00:04:46.106Z,20.33
2018-01-27T00:07:13.676Z,17.70
2018-01-27T00:09:41.870Z,18.98
2018-01-27T00:12:10.197Z,19.35
2018-01-27T00:14:37.634Z,21.33
2018-01-27T00:17:05.110Z,21.05
2018-01-27T00:19:32.573Z,21.33
2018-01-27T00:22:00.007Z,21.15
2018-01-27T00:24:27.437Z,21.17
2018-01-27T00:26:55.640Z,21.55
2018-01-27T00:29:23.070Z,22.50
2018-01-27T00:31:50.501Z,22.03
2018-01-27T00:34:18.737Z,24.07
2018-01-27T00:36:46.177Z,22.40
2018-01-27T00:39:13.649Z,23.42
2018-01-27T00:41:41.094Z,23.62
2018-01-27T00:44:08.558Z,22.15
2018-01-27T00:46:36.126Z,22.92
2018-01-27T00:49:03.640Z,22.42
2018-01-27T00:51:31.757Z,23.12
2018-01-27T00:53:59.196Z,25.10
2018-01-27T00:56:26.775Z,24.60
2018-01-27T00:58:54.221Z,24.23
2018-01-27T01:01:21.659Z,25.85
2018-01-27T01:03:49.146Z,25.10
2018-01-27T01:06:16.694Z,27.42
2018-01-27T01:08:44.191Z,29.17
2018-01-27T01:11:11.817Z,30.30
2018-01-27T01:13:39.386Z,30.35
2018-01-27T01:16:06.837Z,29.45
2018-01-27T01:18:34.289Z,30.40
2018-01-27T01:21:01.725Z,30.25
2018-01-27T01:23:29.201Z,29.80
2018-01-27T01:25:56.657Z,33.70
2018-01-27T01:28:24.197Z,29.17
2018-01-27T01:30:51.669Z,32.17
2018-01-27T01:33:19.129Z,30.10
2018-01-27T01:35:46.584Z,32.58
2018-01-27T01:38:14.013Z,32.03
2018-01-27T01:40:41.444Z,31.33
2018-01-27T01:43:15.341Z,31.62
2018-01-27T01:45:43.538Z,31.10
2018-01-27T01:48:11.042Z,29.73
2018-01-27T01:50:38.497Z,31.10
2018-01-27T01:53:06.032Z,29.98
2018-01-27T01:55:33.613Z,28.42
2018-01-27T01:58:01.058Z,30.27
2018-01-27T02:00:28.485Z,27.15
2018-01-27T02:02:55.970Z,28.73
2018-01-27T02:05:23.405Z,30.60
2018-01-27T02:07:50.844Z,27.30
2018-01-27T02:10:19.042Z,27.27
2018-01-27T02:12:46.476Z,28.75
2018-01-27T02:15:13.977Z,29.25
2018-01-27T02:17:41.531Z,26.80
2018-01-27T02:20:08.957Z,30.05
2018-01-27T02:22:36.394Z,28.98
2018-01-27T02:25:04.730Z,29.00
2018-01-27T02:27:32.185Z,30.17
2018-01-27T02:29:59.629Z,31.30
2018-01-27T02:32:27.049Z,29.70
2018-01-27T02:34:54.498Z,30.57
2018-01-27T02:37:22.690Z,30.55
2018-01-27T02:39:50.122Z,29.65
2018-01-27T02:42:17.550Z,29.98
2018-01-27T02:44:44.986Z,31.65
2018-01-27T02:47:12.446Z,30.20
2018-01-27T02:49:39.913Z,29.15
2018-01-27T02:52:07.376Z,27.42
2018-01-27T02:54:34.917Z,28.15
2018-01-27T02:57:02.386Z,29.17
2018-01-27T02:59:29.826Z,28.15
2018-01-27T03:01:57.491Z,26.77
2018-01-27T03:04:25.041Z,28.40
2018-01-27T03:06:52.514Z,28.05
2018-01-27T03:09:19.954Z,26.55
2018-01-27T03:11:47.420Z,25.77
2018-01-27T03:14:14.876Z,26.40
2018-01-27T03:16:42.317Z,25.70
2018-01-27T03:19:09.777Z,25.12
2018-01-27T03:21:37.205Z,26.60
2018-01-27T03:24:04.693Z,27.05
2018-01-27T03:26:32.337Z,25.40
2018-01-27T03:28:59.770Z,28.10
2018-01-27T03:31:27.266Z,26.13
2018-01-27T03:33:54.689Z,25.73
2018-01-27T03:36:22.141Z,25.25
2018-01-27T03:38:49.570Z,24.12
2018-01-27T03:41:17.006Z,24.05
2018-01-27T03:43:44.429Z,25.08
2018-01-27T03:46:11.914Z,25.00
2018-01-27T03:48:39.357Z,25.55
2018-01-27T03:51:06.817Z,25.70
2018-01-27T03:53:34.460Z,26.70
2018-01-27T03:56:01.869Z,26.40
2018-01-27T03:58:29.300Z,27.27
2018-01-27T04:00:56.738Z,24.37
2018-01-27T04:03:24.182Z,25.15
2018-01-27T04:05:51.622Z,26.87
2018-01-27T04:08:19.221Z,26.60
2018-01-27T04:10:46.665Z,26.60
2018-01-27T04:13:14.111Z,27.48
2018-01-27T04:15:41.594Z,27.45
2018-01-27T04:18:09.044Z,27.27
2018-01-27T04:20:36.475Z,26.10
2018-01-27T04:23:03.954Z,28.37
2018-01-27T04:25:31.383Z,29.63
2018-01-27T04:27:58.884Z,27.20
2018-01-27T04:30:26.309Z,27.13
2018-01-27T04:32:53.788Z,27.75
2018-01-27T04:35:21.243Z,27.40
2018-01-27T04:37:48.678Z,28.27
2018-01-27T04:40:16.101Z,26.77
2018-01-27T04:42:44.330Z,25.05
2018-01-27T04:45:11.753Z,23.90
2018-01-27T04:47:39.184Z,25.07
2018-01-27T04:50:07.379Z,23.55
2018-01-27T04:52:34.821Z,24.05
2018-01-27T04:55:03.050Z,26.35
2018-01-27T04:57:30.494Z,26.67
2018-01-27T04:59:58.059Z,25.73
2018-01-27T05:02:25.504Z,25.95
2018-01-27T05:04:52.937Z,24.42
2018-01-27T05:07:20.369Z,26.30
2018-01-27T05:09:48.566Z,25.42
2018-01-27T05:12:16.011Z,26.27
2018-01-27T05:14:44.213Z,26.48
2018-01-27T05:17:11.653Z,27.83
2018-01-27T05:19:39.082Z,27.00
2018-01-27T05:22:07.314Z,28.20
2018-01-27T05:24:34.769Z,27.45
2018-01-27T05:27:02.193Z,27.08
2018-01-27T05:29:29.625Z,27.52
2018-01-27T05:31:57.829Z,29.92
2018-01-27T05:34:25.266Z,30.27
2018-01-27T05:36:53.457Z,28.75
2018-01-27T05:39:20.945Z,30.17
2018-01-27T05:41:48.374Z,30.15
2018-01-27T05:44:15.813Z,28.95
2018-01-27T05:46:44.033Z,30.37
2018-01-27T05:49:11.462Z,30.33
2018-01-27T05:51:38.905Z,32.20
2018-01-27T05:54:06.363Z,30.75
2018-01-27T05:56:33.859Z,32.08
2018-01-27T05:59:01.853Z,30.02
2018-01-27T06:01:29.295Z,31.08
2018-01-27T06:03:56.733Z,29.80
2018-01-27T06:06:24.167Z,30.95
2018-01-27T06:08:51.617Z,28.65
2018-01-27T06:11:19.049Z,30.30
2018-01-27T06:13:47.258Z,29.65
2018-01-27T06:16:14.694Z,31.65
2018-01-27T06:18:42.889Z,32.03
2018-01-27T06:21:10.326Z,30.02
2018-01-27T06:23:38.524Z,29.80
2018-01-27T06:26:05.947Z,29.70
2018-01-27T06:28:33.389Z,29.35
2018-01-27T06:31:00.826Z,29.92
2018-01-27T06:33:28.281Z,27.33
2018-01-27T06:35:55.856Z,27.42
2018-01-27T06:38:23.277Z,26.95
2018-01-27T06:40:50.746Z,25.62
2018-01-27T06:43:18.201Z,24.27
2018-01-27T06:45:45.676Z,25.67
2018-01-27T06:48:13.211Z,26.93
2018-01-27T06:50:40.644Z,26.60
2018-01-27T06:53:08.073Z,26.63
2018-01-27T06:55:36.283Z,28.25
2018-01-27T06:58:03.758Z,27.77
2018-01-27T07:00:31.198Z,27.10
2018-01-27T07:02:58.671Z,27.05
2018-01-27T07:05:26.689Z,26.62
2018-01-27T07:07:54.905Z,25.95
2018-01-27T07:10:22.338Z,27.55
2018-01-27T07:12:49.773Z,27.70
2018-01-27T07:15:18.001Z,27.73
2018-01-27T07:17:45.469Z,28.23
2018-01-27T07:20:12.913Z,28.20
2018-01-27T07:22:40.365Z,27.95
2018-01-27T07:25:07.825Z,25.45
2018-01-27T07:27:35.282Z,25.75
2018-01-27T07:30:02.718Z,25.45
2018-01-27T07:32:30.187Z,22.70
2018-01-27T07:34:57.621Z,20.95
2018-01-27T07:37:25.070Z,21.90
2018-01-27T07:39:52.510Z,21.37
2018-01-27T07:42:20.819Z,22.52
2018-01-27T07:44:48.274Z,23.67
2018-01-27T07:47:15.755Z,22.62
2018-01-27T07:49:43.186Z,22.50
2018-01-27T07:52:10.636Z,22.42
2018-01-27T07:54:38.132Z,21.90
2018-01-27T07:57:05.596Z,21.62
2018-01-27T07:59:33.091Z,22.25
2018-01-27T08:02:01.293Z,22.50
2018-01-27T08:04:28.778Z,22.70
2018-01-27T08:06:56.429Z,23.25
2018-01-27T08:09:23.869Z,23.10
2018-01-27T08:11:51.321Z,20.65
2018-01-27T08:14:18.798Z,17.75
2018-01-27T08:16:46.225Z,18.20
2018-01-27T08:19:13.805Z,19.60
2018-01-27T08:21:41.307Z,19.80
2018-01-27T08:24:08.786Z,19.37
2018-01-27T08:26:36.281Z,20.87
2018-01-27T08:29:03.710Z,19.33
2018-01-27T08:31:31.152Z,20.85
2018-01-27T08:33:59.361Z,19.83
2018-01-27T08:36:26.821Z,20.27
2018-01-27T08:38:54.286Z,20.40
2018-01-27T08:41:21.742Z,20.83
2018-01-27T08:43:49.196Z,22.45
2018-01-27T08:46:16.631Z,20.05
2018-01-27T08:48:44.089Z,20.20
2018-01-27T08:51:12.167Z,19.43
2018-01-27T08:53:39.658Z,19.30
2018-01-27T08:56:07.074Z,19.70
2018-01-27T08:58:34.527Z,22.55
2018-01-27T09:01:01.970Z,22.87
2018-01-27T09:03:29.497Z,22.05
2018-01-27T09:05:56.994Z,22.58
2018-01-27T09:08:24.473Z,23.65
2018-01-27T09:10:51.917Z,25.25
2018-01-27T09:13:19.387Z,27.97
2018-01-27T09:15:46.862Z,27.30
2018-01-27T09:18:14.301Z,26.55
2018-01-27T09:20:41.755Z,26.87
2018-01-27T09:23:09.245Z,29.50
2018-01-27T09:25:36.770Z,26.90
2018-01-27T09:28:04.223Z,27.73
2018-01-27T09:30:31.685Z,28.90
2018-01-27T09:32:59.134Z,27.77
2018-01-27T09:35:26.991Z,29.98
2018-01-27T09:37:54.556Z,29.10
2018-01-27T09:40:21.993Z,28.30
2018-01-27T09:42:49.453Z,29.15
2018-01-27T09:45:16.978Z,28.65
2018-01-27T09:47:44.492Z,28.48
2018-01-27T09:50:11.942Z,29.85
2018-01-27T09:52:39.414Z,29.52
2018-01-27T09:55:06.868Z,29.05
2018-01-27T09:57:34.301Z,29.80
2018-01-27T10:00:01.766Z,30.10
2018-01-27T10:02:29.198Z,28.63
2018-01-27T10:04:57.281Z,30.00
2018-01-27T10:07:24.725Z,28.58
2018-01-27T10:09:52.911Z,29.12
2018-01-27T10:12:20.334Z,28.90
2018-01-27T10:14:47.877Z,29.12
2018-01-27T10:17:15.315Z,30.62
2018-01-27T10:19:42.746Z,31.55
2018-01-27T10:22:10.173Z,30.15
2018-01-27T10:24:37.605Z,28.87
2018-01-27T10:27:05.066Z,30.15
2018-01-27T10:29:32.592Z,31.27
2018-01-27T10:32:00.032Z,30.60
2018-01-27T10:34:27.525Z,29.80
2018-01-27T10:36:56.578Z,28.27
2018-01-27T10:39:24.157Z,29.67
2018-01-27T10:41:51.590Z,28.02
2018-01-27T10:44:19.025Z,26.02
2018-01-27T10:46:46.514Z,26.95
2018-01-27T10:49:14.008Z,26.52
2018-01-27T10:51:41.549Z,25.33
2018-01-27T10:54:08.993Z,26.40
2018-01-27T10:56:36.417Z,27.77
2018-01-27T10:59:03.889Z,25.42
2018-01-27T11:01:31.313Z,25.52
2018-01-27T11:03:59.543Z,22.25
2018-01-27T11:06:26.991Z,21.67
2018-01-27T11:08:54.453Z,21.70
2018-01-27T11:11:22.010Z,22.37
2018-01-27T11:13:49.458Z,23.77
2018-01-27T11:16:16.889Z,22.70
2018-01-27T11:18:45.074Z,23.62
2018-01-27T11:21:12.524Z,24.45
2018-01-27T11:23:40.019Z,26.98
2018-01-27T11:26:07.465Z,27.27
2018-01-27T11:28:34.937Z,26.27
2018-01-27T11:31:02.381Z,26.37
2018-01-27T11:33:29.810Z,24.05
2018-01-27T11:35:57.314Z,26.08
2018-01-27T11:38:24.761Z,24.87
2018-01-27T11:40:52.301Z,24.87
2018-01-27T11:43:19.735Z,24.55
2018-01-27T11:45:47.240Z,24.45
2018-01-27T11:48:14.691Z,25.25
2018-01-27T11:50:42.229Z,24.02
2018-01-27T11:53:09.773Z,24.23
2018-01-27T11:55:38.166Z,25.40
2018-01-27T11:58:05.619Z,26.45
2018-01-27T12:00:33.279Z,26.25
2018-01-27T12:03:00.720Z,27.00
2018-01-27T12:05:29.119Z,25.73
2018-01-27T12:07:56.541Z,24.90
2018-01-27T12:10:24.738Z,24.37
2018-01-27T12:12:52.175Z,25.30
2018-01-27T12:15:20.390Z,25.88
2018-01-27T12:17:47.826Z,26.90
2018-01-27T12:20:15.262Z,25.92
2018-01-27T12:22:43.465Z,25.40
2018-01-27T12:25:10.895Z,23.70
2018-01-27T12:27:38.359Z,24.42
2018-01-27T12:30:05.863Z,22.62
2018-01-27T12:32:33.315Z,23.62
2018-01-27T12:35:00.956Z,24.90
2018-01-27T12:37:28.417Z,24.55
2018-01-27T12:39:55.854Z,24.50
2018-01-27T12:42:23.347Z,25.20
2018-01-27T12:44:50.921Z,24.25
2018-01-27T12:47:18.489Z,26.33
2018-01-27T12:49:46.031Z,24.42
2018-01-27T12:52:13.562Z,24.70
2018-01-27T12:54:41.170Z,27.80
2018-01-27T12:57:08.598Z,27.45
2018-01-27T12:59:36.053Z,26.23
2018-01-27T13:02:03.529Z,25.50
2018-01-27T13:04:30.965Z,26.42
2018-01-27T13:06:58.405Z,25.20
2018-01-27T13:09:25.893Z,26.62
2018-01-27T13:11:53.333Z,26.00
2018-01-27T13:14:20.802Z,26.40
2018-01-27T13:16:48.230Z,26.37
2018-01-27T13:19:15.663Z,26.33
2018-01-27T13:21:43.113Z,25.83
2018-01-27T13:24:11.329Z,25.80
2018-01-27T13:26:38.852Z,26.70
2018-01-27T13:29:06.393Z,26.00
2018-01-27T13:31:34.101Z,26.13
2018-01-27T13:34:01.747Z,26.00
2018-01-27T13:36:29.424Z,26.85
2018-01-27T13:38:57.085Z,26.75
2018-01-27T13:41:24.710Z,25.83
2018-01-27T13:43:53.080Z,26.00
2018-01-27T13:46:21.443Z,27.52
2018-01-27T13:48:49.136Z,25.47
2018-01-27T13:51:16.884Z,26.90
2018-01-27T13:53:44.694Z,25.55
2018-01-27T13:56:12.170Z,26.90
2018-01-27T13:58:40.481Z,25.50
2018-01-27T14:01:07.916Z,26.35
2018-01-27T14:03:36.171Z,26.77
2018-01-27T14:06:03.618Z,27.62
2018-01-27T14:08:31.050Z,28.15
2018-01-27T14:10:59.254Z,27.35
2018-01-27T14:13:26.690Z,25.02
2018-01-27T14:15:54.896Z,25.07
2018-01-27T14:18:22.375Z,23.30
2018-01-27T14:20:50.638Z,23.75
2018-01-27T14:23:18.188Z,24.33
2018-01-27T14:25:45.642Z,22.05
2018-01-27T14:28:13.130Z,22.60
2018-01-27T14:30:40.572Z,23.75
2018-01-27T14:33:08.002Z,21.83
2018-01-27T14:35:35.489Z,21.77
2018-01-27T14:38:02.894Z,23.70
2018-01-27T14:40:30.322Z,22.85
2018-01-27T14:42:57.757Z,23.20
2018-01-27T14:45:25.251Z,23.40
2018-01-27T14:47:52.702Z,23.33
2018-01-27T14:50:20.132Z,23.80
2018-01-27T14:52:47.562Z,23.90
2018-01-27T14:55:14.993Z,22.45
2018-01-27T14:57:42.601Z,22.05
2018-01-27T15:00:10.079Z,20.50
2018-01-27T15:02:37.565Z,22.50
2018-01-27T15:05:04.991Z,21.20
2018-01-27T15:07:32.429Z,20.23
2018-01-27T15:09:59.860Z,18.05
2018-01-27T15:12:28.062Z,19.52
2018-01-27T15:14:55.486Z,19.83
2018-01-27T15:17:23.490Z,19.45
2018-01-27T15:19:50.925Z,19.95
2018-01-27T15:22:18.402Z,20.55
2018-01-27T15:24:45.817Z,21.57
2018-01-27T15:27:14.017Z,19.90
2018-01-27T15:29:41.473Z,22.60
2018-01-27T15:32:08.918Z,20.80
2018-01-27T15:34:37.183Z,21.52
2018-01-27T15:37:04.618Z,23.08
2018-01-27T15:39:32.071Z,24.42
2018-01-27T15:42:00.939Z,26.58
2018-01-27T15:44:46.435Z,20.83
2018-01-27T15:47:13.892Z,26.30
2018-01-27T15:49:41.337Z,24.15
2018-01-27T15:52:08.788Z,23.92
2018-01-27T15:54:37.019Z,25.60
2018-01-27T15:57:04.494Z,25.20
2018-01-27T15:59:32.125Z,25.00
2018-01-27T16:01:59.598Z,24.20
2018-01-27T16:04:27.027Z,24.77
2018-01-27T16:06:54.501Z,28.17
2018-01-27T16:09:21.935Z,31.23
2018-01-27T16:11:49.382Z,31.73
2018-01-27T16:14:16.845Z,30.73
2018-01-27T16:16:44.345Z,27.17
2018-01-27T16:19:11.795Z,26.45
2018-01-27T16:21:39.233Z,25.47
2018-01-27T16:24:06.721Z,26.17
2018-01-27T16:26:34.158Z,24.25
2018-01-27T16:29:01.642Z,24.23
2018-01-27T16:31:29.114Z,25.48
2018-01-27T16:33:56.558Z,24.50
2018-01-27T16:36:23.997Z,27.55
2018-01-27T16:38:51.443Z,23.45
2018-01-27T16:41:18.923Z,22.63
2018-01-27T16:43:46.339Z,23.10
2018-01-27T16:46:14.546Z,22.20
2018-01-27T16:48:42.093Z,22.15
2018-01-27T16:51:10.309Z,24.08
2018-01-27T16:53:37.767Z,24.03
2018-01-27T16:56:05.197Z,24.75
2018-01-27T16:58:32.690Z,25.83
2018-01-27T17:01:00.149Z,26.48
2018-01-27T17:03:27.605Z,24.12
2018-01-27T17:05:55.041Z,25.12
2018-01-27T17:08:22.533Z,22.80
2018-01-27T17:10:50.033Z,23.08
2018-01-27T17:13:18.255Z,23.62
2018-01-27T17:15:45.717Z,23.10
2018-01-27T17:18:13.162Z,22.50
2018-01-27T17:20:40.604Z,23.27
2018-01-27T17:23:08.033Z,23.80
2018-01-27T17:25:36.299Z,31.15
2018-01-27T17:28:03.727Z,29.45
2018-01-27T17:30:31.163Z,25.60
2018-01-27T17:32:58.624Z,24.30
2018-01-27T17:35:26.060Z,28.77
2018-01-27T17:37:53.523Z,24.50
2018-01-27T17:40:20.961Z,29.45
2018-01-27T17:42:48.450Z,28.60
2018-01-27T17:45:16.013Z,25.95
2018-01-27T17:47:43.450Z,25.15
2018-01-27T17:50:11.471Z,28.00
2018-01-27T17:52:39.042Z,28.20
2018-01-27T17:55:07.117Z,27.23
2018-01-27T17:57:35.327Z,28.08
2018-01-27T18:00:02.758Z,31.55
2018-01-27T18:02:30.233Z,33.00
2018-01-27T18:04:57.751Z,33.65
2018-01-27T18:07:25.198Z,32.88
2018-01-27T18:09:52.653Z,33.47
2018-01-27T18:12:20.114Z,32.97
2018-01-27T18:14:47.658Z,32.13
2018-01-27T18:17:15.210Z,30.95
2018-01-27T18:19:42.634Z,30.80
2018-01-27T18:22:10.933Z,31.90
2018-01-27T18:24:38.313Z,32.97
2018-01-27T18:27:05.759Z,30.40
2018-01-27T18:29:33.194Z,31.42
2018-01-27T18:32:01.222Z,30.17
2018-01-27T18:34:28.677Z,33.30
2018-01-27T18:36:56.137Z,31.25
2018-01-27T18:39:23.558Z,32.42
2018-01-27T18:41:51.057Z,31.27
2018-01-27T18:44:18.538Z,31.67
2018-01-27T18:46:46.747Z,33.65
2018-01-27T18:49:14.289Z,29.73
2018-01-27T18:51:42.620Z,30.40
2018-01-27T18:54:10.059Z,31.30
2018-01-27T18:56:37.500Z,30.60
2018-01-27T18:59:04.986Z,30.70
2018-01-27T19:01:32.449Z,28.80
2018-01-27T19:03:59.870Z,30.33
2018-01-27T19:06:27.341Z,31.73
2018-01-27T19:08:54.788Z,28.17
2018-01-27T19:11:22.255Z,29.48
2018-01-27T19:13:49.722Z,27.90
2018-01-27T19:16:17.260Z,28.92
2018-01-27T19:18:44.860Z,26.98
2018-01-27T19:21:12.318Z,26.77
2018-01-27T19:23:39.782Z,26.77
2018-01-27T19:26:07.230Z,26.40
2018-01-27T19:28:34.664Z,26.67
2018-01-27T19:31:02.098Z,26.67
2018-01-27T19:33:29.585Z,25.35
2018-01-27T19:35:57.026Z,24.30
2018-01-27T19:38:24.501Z,25.40
2018-01-27T19:40:51.938Z,23.52
2018-01-27T19:43:19.781Z,23.48
2018-01-27T19:45:47.293Z,25.10
2018-01-27T19:48:15.375Z,24.95
2018-01-27T19:50:42.825Z,23.80
2018-01-27T19:53:10.258Z,25.00
2018-01-27T19:55:37.730Z,24.30
2018-01-27T19:58:05.173Z,22.02
2018-01-27T20:00:33.218Z,22.23
2018-01-27T20:03:01.426Z,21.65
2018-01-27T20:05:28.973Z,24.27
2018-01-27T20:07:56.411Z,23.80
2018-01-27T20:10:24.829Z,23.38
2018-01-27T20:12:52.275Z,21.95
2018-01-27T20:15:19.733Z,22.33
2018-01-27T20:17:47.170Z,21.85
2018-01-27T20:20:14.618Z,20.73
2018-01-27T20:22:42.062Z,21.75
2018-01-27T20:25:10.406Z,21.58
2018-01-27T20:27:37.841Z,21.58
2018-01-27T20:30:05.286Z,20.10
2018-01-27T20:32:32.734Z,19.65
2018-01-27T20:35:00.329Z,19.90
2018-01-27T20:37:27.769Z,21.00
2018-01-27T20:39:55.319Z,19.97
2018-01-27T20:42:22.734Z,21.98
2018-01-27T20:44:51.052Z,21.48
2018-01-27T20:47:18.522Z,21.23
2018-01-27T20:49:45.959Z,20.05
2018-01-27T20:52:13.410Z,19.20
2018-01-27T20:54:40.844Z,20.45
2018-01-27T20:57:09.038Z,20.87
2018-01-27T20:59:36.474Z,20.05
2018-01-27T21:02:04.003Z,20.60
2018-01-27T21:04:31.593Z,19.62
2018-01-27T21:07:00.023Z,18.92
2018-01-27T21:09:28.112Z,19.40
2018-01-27T21:11:55.696Z,18.83
2018-01-27T21:14:23.279Z,21.27
2018-01-27T21:16:51.658Z,18.67
2018-01-27T21:19:20.002Z,17.70
2018-01-27T21:21:47.606Z,18.87
2018-01-27T21:24:15.382Z,19.15
2018-01-27T21:26:42.837Z,17.75
2018-01-27T21:29:11.138Z,18.98
2018-01-27T21:31:38.651Z,18.92
2018-01-27T21:34:06.991Z,17.42
2018-01-27T21:36:34.537Z,16.40
2018-01-27T21:39:02.010Z,18.30
2018-01-27T21:41:29.449Z,16.75
2018-01-27T21:43:56.881Z,16.58
2018-01-27T21:46:24.333Z,17.40
2018-01-27T21:48:52.671Z,16.50
2018-01-27T21:51:20.107Z,16.30
2018-01-27T21:53:47.659Z,17.27
2018-01-27T21:56:15.070Z,16.00
2018-01-27T21:58:42.508Z,16.20
2018-01-27T22:01:09.941Z,17.02
2018-01-27T22:03:37.422Z,15.57
2018-01-27T22:06:04.860Z,16.20
2018-01-27T22:08:32.588Z,16.52
2018-01-27T22:11:00.914Z,16.45
2018-01-27T22:13:28.448Z,17.10
2018-01-27T22:15:55.870Z,17.90
2018-01-27T22:18:24.122Z,17.23
2018-01-27T22:20:51.662Z,17.20
2018-01-27T22:23:19.158Z,17.12
2018-01-27T22:25:47.394Z,18.00
2018-01-27T22:28:14.817Z,18.50
2018-01-27T22:30:42.339Z,19.00
2018-01-27T22:33:09.869Z,19.65
2018-01-27T22:35:37.318Z,18.45
2018-01-27T22:38:04.760Z,19.92
2018-01-27T22:40:32.216Z,19.83
2018-01-27T22:42:59.653Z,20.40
2018-01-27T22:45:27.230Z,20.90
2018-01-27T22:47:54.646Z,20.97
2018-01-27T22:50:22.099Z,22.00
2018-01-27T22:52:50.364Z,21.77
2018-01-27T22:55:17.794Z,22.75
2018-01-27T22:57:45.249Z,22.40
2018-01-27T23:00:12.687Z,21.62
2018-01-27T23:02:40.161Z,21.80
2018-01-27T23:05:07.592Z,20.60
2018-01-27T23:07:35.037Z,21.37
2018-01-27T23:10:02.477Z,22.10
2018-01-27T23:12:30.677Z,19.40
2018-01-27T23:14:58.163Z,20.25
2018-01-27T23:17:25.621Z,19.62
2018-01-27T23:19:53.094Z,20.17
2018-01-27T23:22:20.550Z,17.55
2018-01-27T23:24:47.974Z,18.40
2018-01-27T23:27:15.445Z,16.80
2018-01-27T23:29:42.874Z,16.87
2018-01-27T23:32:10.321Z,16.45
2018-01-27T23:34:37.773Z,16.25
2018-01-27T23:37:06.017Z,17.05
2018-01-27T23:39:33.442Z,15.70
2018-01-27T23:42:00.905Z,16.10
2018-01-27T23:44:28.363Z,15.40
2018-01-27T23:46:55.804Z,16.08
2018-01-27T23:49:23.279Z,15.98
2018-01-27T23:51:51.465Z,15.68
2018-01-27T23:54:18.938Z,16.17
2018-01-27T23:56:46.483Z,16.15
2018-01-27T23:59:13.918Z,15.25
